Time;durP1;ratioP1;P1;durP2;ratioP2;P2;SDS_P1;SDS_P2;PMS_P1;PMS_P2;Temp;Humidity;BMP_temperature;BMP_pressure;BME280_temperature;BME280_humidity;BME280_pressure;Samples;Min_cycle;Max_cycle;Signal;HPM_P1;HPM_P2
2023/11/13 00:01:00;;;;;;;14.80;8.00;;;7.10;99.90;;;;;;2600691;54;20905;31
2023/11/13 00:03:35;;;;;;;14.70;8.23;;;7.10;99.90;;;;;;2600447;54;20997;31
2023/11/13 00:06:09;;;;;;;16.33;8.65;;;7.10;99.90;;;;;;2600584;54;21755;31
2023/11/13 00:08:47;;;;;;;13.57;8.00;;;7.10;99.90;;;;;;2600362;54;20042;31
2023/11/13 00:11:22;;;;;;;15.15;8.50;;;7.10;99.90;;;;;;2600407;54;20040;31
2023/11/13 00:13:57;;;;;;;13.50;7.80;;;7.10;99.90;;;;;;2600788;54;20965;31
2023/11/13 00:16:32;;;;;;;14.20;7.10;;;7.00;99.90;;;;;;2600912;39;20305;31
2023/11/13 00:19:07;;;;;;;18.55;8.30;;;7.10;99.90;;;;;;2600831;54;20254;31
2023/11/13 00:21:42;;;;;;;15.30;7.68;;;7.10;99.90;;;;;;2600605;54;20061;31
2023/11/13 00:24:21;;;;;;;13.38;8.45;;;7.00;99.90;;;;;;2601077;39;21122;31
2023/11/13 00:26:55;;;;;;;14.63;8.07;;;7.10;99.90;;;;;;2600779;39;20216;31
2023/11/13 00:29:30;;;;;;;13.13;8.38;;;7.00;99.90;;;;;;2600499;54;20940;31
2023/11/13 00:32:05;;;;;;;13.70;8.40;;;7.00;99.90;;;;;;2600422;54;20057;31
2023/11/13 00:34:40;;;;;;;14.63;8.43;;;7.00;99.90;;;;;;2600402;54;20384;31
2023/11/13 00:37:14;;;;;;;20.60;8.35;;;7.00;99.90;;;;;;2600949;39;21345;31
2023/11/13 00:39:50;;;;;;;19.92;8.27;;;7.00;99.90;;;;;;2600453;54;21012;31
2023/11/13 00:42:25;;;;;;;14.50;8.00;;;7.00;99.90;;;;;;2619147;46;20237;31
2023/11/13 00:45:00;;;;;;;12.45;7.60;;;7.00;99.90;;;;;;2600490;54;20897;31
2023/11/13 00:47:35;;;;;;;13.45;7.50;;;7.00;99.90;;;;;;2600848;54;20905;31
2023/11/13 00:50:10;;;;;;;13.27;7.40;;;7.00;99.90;;;;;;2600555;54;20038;31
2023/11/13 00:52:45;;;;;;;;;;;7.00;99.90;;;;;;2600703;54;21314;31
2023/11/13 00:55:22;;;;;;;16.85;7.95;;;7.00;99.90;;;;;;2600786;54;20871;31
2023/11/13 00:57:59;;;;;;;14.80;7.45;;;7.00;99.90;;;;;;2600645;54;20888;31
2023/11/13 01:00:34;;;;;;;16.35;8.00;;;7.00;99.90;;;;;;2600469;54;20057;31
2023/11/13 01:03:09;;;;;;;14.50;7.70;;;7.00;99.90;;;;;;2600517;54;20046;31
2023/11/13 01:05:44;;;;;;;9.82;6.47;;;7.00;99.90;;;;;;2619122;46;20034;31
2023/11/13 01:08:18;;;;;;;11.27;6.68;;;6.90;99.90;;;;;;2600295;54;20418;31
2023/11/13 01:10:56;;;;;;;10.85;6.30;;;6.90;99.90;;;;;;2600664;54;20936;31
2023/11/13 01:13:31;;;;;;;10.68;6.03;;;7.00;99.90;;;;;;2600676;54;20940;31
2023/11/13 01:16:06;;;;;;;11.45;6.45;;;7.00;99.90;;;;;;2618572;46;20933;31
2023/11/13 01:18:41;;;;;;;17.17;6.45;;;6.90;99.90;;;;;;2600652;54;20061;31
2023/11/13 01:21:16;;;;;;;10.10;5.85;;;6.90;99.90;;;;;;2600563;54;20042;31
2023/11/13 01:23:51;;;;;;;11.57;7.28;;;6.90;99.90;;;;;;2600482;54;20042;31
2023/11/13 01:26:28;;;;;;;10.93;6.57;;;6.90;99.90;;;;;;2600239;54;20045;31
2023/11/13 01:29:03;;;;;;;10.30;6.50;;;6.90;99.90;;;;;;2600312;54;20274;31
2023/11/13 01:31:38;;;;;;;9.87;5.83;;;6.90;99.90;;;;;;2600518;54;20239;31
2023/11/13 01:34:12;;;;;;;11.60;6.05;;;6.90;99.90;;;;;;2618962;39;22322;31
2023/11/13 01:36:46;;;;;;;12.27;6.40;;;6.90;99.90;;;;;;2600219;54;21021;31
2023/11/13 01:39:21;;;;;;;9.77;6.35;;;6.90;99.90;;;;;;2600532;54;20064;31
2023/11/13 01:41:57;;;;;;;10.52;6.38;;;6.90;99.90;;;;;;2618908;47;20046;31
2023/11/13 01:44:33;;;;;;;8.00;4.95;;;6.90;99.90;;;;;;2600222;54;20040;31
2023/11/13 01:47:07;;;;;;;9.00;4.97;;;6.80;99.90;;;;;;2600247;54;20951;31
2023/11/13 01:49:42;;;;;;;13.77;5.47;;;6.80;99.90;;;;;;2600175;54;20034;31
2023/11/13 01:52:17;;;;;;;7.65;5.20;;;6.80;99.90;;;;;;2600217;54;20128;31
2023/11/13 01:54:52;;;;;;;9.57;5.03;;;6.80;99.90;;;;;;2600277;54;20046;31
2023/11/13 01:57:28;;;;;;;9.57;4.95;;;6.80;99.90;;;;;;2600281;54;20278;31
2023/11/13 02:00:03;;;;;;;8.50;4.55;;;6.80;99.90;;;;;;2600038;54;20930;31
2023/11/13 02:02:46;;;;;;;11.43;4.70;;;6.80;99.90;;;;;;2600677;54;20954;31
2023/11/13 02:05:21;;;;;;;6.93;4.32;;;6.80;99.20;;;;;;2618603;47;20038;31
2023/11/13 02:07:56;;;;;;;9.77;4.67;;;6.80;98.80;;;;;;2600131;54;20045;31
2023/11/13 02:10:30;;;;;;;6.87;4.50;;;6.70;99.00;;;;;;2600120;54;20042;31
2023/11/13 02:13:09;;;;;;;7.15;4.63;;;6.70;99.00;;;;;;2600110;54;20042;31
2023/11/13 02:15:43;;;;;;;10.13;5.03;;;6.70;98.80;;;;;;2600132;54;20947;31
2023/11/13 02:18:18;;;;;;;9.68;4.60;;;6.70;98.10;;;;;;2600346;54;20042;31
2023/11/13 02:20:53;;;;;;;8.88;4.80;;;6.70;98.60;;;;;;2609687;46;20962;31
2023/11/13 02:23:29;;;;;;;7.30;4.35;;;6.60;99.40;;;;;;2600881;54;20038;31
2023/11/13 02:26:07;;;;;;;10.70;4.90;;;6.60;99.40;;;;;;2600983;54;21005;31
2023/11/13 02:28:41;;;;;;;8.98;4.93;;;6.60;99.60;;;;;;2600987;54;20097;31
2023/11/13 02:31:15;;;;;;;9.63;4.38;;;6.60;99.90;;;;;;2600968;54;21015;31
2023/11/13 02:33:50;;;;;;;7.35;4.57;;;6.50;99.90;;;;;;2601374;54;20035;31
2023/11/13 02:36:25;;;;;;;8.07;5.28;;;6.50;99.40;;;;;;2600965;54;20087;31
2023/11/13 02:39:02;;;;;;;10.15;5.90;;;6.50;99.60;;;;;;2619682;46;21084;31
2023/11/13 02:41:37;;;;;;;9.67;5.30;;;6.40;99.90;;;;;;2619590;46;20034;31
2023/11/13 02:44:11;;;;;;;9.32;5.68;;;6.40;99.90;;;;;;2600807;54;20639;31
2023/11/13 02:46:46;;;;;;;8.05;4.50;;;6.40;99.90;;;;;;2601369;54;20042;31
2023/11/13 02:49:21;;;;;;;7.65;5.50;;;6.30;99.90;;;;;;2600866;54;20170;31
2023/11/13 02:51:56;;;;;;;8.35;4.43;;;6.30;99.90;;;;;;2601216;54;21055;31
2023/11/13 02:54:34;;;;;;;7.95;4.22;;;6.20;99.90;;;;;;2601027;54;20069;31
2023/11/13 02:57:08;;;;;;;9.95;4.70;;;6.20;99.90;;;;;;2619428;46;20038;31
2023/11/13 02:59:43;;;;;;;8.15;4.63;;;6.10;99.90;;;;;;2601288;39;20306;31
2023/11/13 03:02:17;;;;;;;10.88;4.95;;;6.10;99.90;;;;;;2601286;39;20440;31
2023/11/13 03:04:51;;;;;;;8.45;4.60;;;6.00;99.90;;;;;;2619196;46;20217;31
2023/11/13 03:07:25;;;;;;;7.20;4.60;;;6.00;99.90;;;;;;2600782;54;20054;31
2023/11/13 03:10:03;;;;;;;7.45;4.55;;;5.90;99.90;;;;;;2600709;54;20991;31
2023/11/13 03:12:37;;;;;;;8.00;4.90;;;5.90;99.90;;;;;;2601096;54;20921;31
2023/11/13 03:15:12;;;;;;;10.40;5.70;;;5.80;99.90;;;;;;2601046;54;20940;31
2023/11/13 03:17:47;;;;;;;9.30;4.75;;;5.80;99.90;;;;;;2600810;54;20048;31
2023/11/13 03:20:23;;;;;;;6.67;4.10;;;5.70;99.90;;;;;;2600719;54;20034;31
2023/11/13 03:22:57;;;;;;;11.20;5.07;;;5.70;99.90;;;;;;2619253;46;20042;31
2023/11/13 03:25:33;;;;;;;9.70;4.78;;;5.60;99.90;;;;;;2600702;54;20401;31
2023/11/13 03:28:08;;;;;;;10.43;4.77;;;5.50;99.90;;;;;;2601117;54;20880;31
2023/11/13 03:30:43;;;;;;;9.00;4.47;;;5.40;99.90;;;;;;2600398;54;21016;31
2023/11/13 03:33:17;;;;;;;8.60;4.63;;;5.40;99.90;;;;;;2600739;54;20045;31
2023/11/13 03:35:55;;;;;;;8.05;4.45;;;5.30;99.90;;;;;;2600993;54;21015;31
2023/11/13 03:38:30;;;;;;;10.80;4.65;;;5.30;99.90;;;;;;2600785;54;20030;31
2023/11/13 03:41:07;;;;;;;6.20;4.20;;;5.20;99.90;;;;;;2619149;46;20182;31
2023/11/13 03:43:40;;;;;;;6.97;4.10;;;5.10;99.90;;;;;;2619479;39;20811;31
2023/11/13 03:46:15;;;;;;;8.90;4.75;;;5.10;99.90;;;;;;2600698;54;20038;31
2023/11/13 03:48:50;;;;;;;9.50;3.97;;;5.00;99.90;;;;;;2600925;54;20936;31
2023/11/13 03:51:24;;;;;;;9.55;4.60;;;4.90;99.90;;;;;;2600750;54;20847;31
2023/11/13 03:53:59;;;;;;;7.38;4.10;;;4.80;99.90;;;;;;2619597;46;20038;31
2023/11/13 03:56:35;;;;;;;9.10;4.05;;;4.70;99.90;;;;;;2601778;39;20273;31
2023/11/13 03:59:10;;;;;;;9.68;3.88;;;4.70;99.90;;;;;;2600668;54;20102;31
2023/11/13 04:01:48;;;;;;;10.65;4.40;;;4.60;99.90;;;;;;2602828;54;20108;31
2023/11/13 04:04:24;;;;;;;6.65;4.20;;;4.50;99.90;;;;;;2603501;54;20053;31
2023/11/13 04:06:58;;;;;;;9.15;4.50;;;4.50;99.90;;;;;;2603545;54;20037;31
2023/11/13 04:09:35;;;;;;;8.05;4.40;;;4.40;99.90;;;;;;2621955;46;20055;31
2023/11/13 04:12:12;;;;;;;8.25;4.30;;;4.40;99.90;;;;;;2603267;54;20038;31
2023/11/13 04:14:46;;;;;;;8.23;4.57;;;4.40;99.90;;;;;;2603271;54;21065;31
2023/11/13 04:17:22;;;;;;;7.05;4.05;;;4.30;99.90;;;;;;2603279;54;20030;31
2023/11/13 04:19:57;;;;;;;7.80;4.17;;;4.30;99.90;;;;;;2603292;54;20117;31
2023/11/13 04:22:32;;;;;;;7.13;4.07;;;4.30;99.90;;;;;;2603277;54;20096;31
2023/11/13 04:25:07;;;;;;;8.95;4.55;;;4.20;99.90;;;;;;2621672;46;20058;31
2023/11/13 04:27:44;;;;;;;7.55;5.05;;;4.30;99.90;;;;;;2603418;54;19941;31
2023/11/13 04:30:19;;;;;;;9.02;6.00;;;4.30;99.90;;;;;;2603197;54;20923;31
2023/11/13 04:32:54;;;;;;;7.78;4.38;;;4.20;99.90;;;;;;2621925;46;20852;31
2023/11/13 04:35:29;;;;;;;8.90;4.35;;;4.20;99.90;;;;;;2621669;46;20038;31
2023/11/13 04:38:03;;;;;;;9.60;5.07;;;4.20;99.90;;;;;;2621710;46;20090;31
2023/11/13 04:40:38;;;;;;;7.80;5.65;;;4.10;99.90;;;;;;2603133;54;20013;31
2023/11/13 04:43:14;;;;;;;8.63;5.47;;;4.10;99.90;;;;;;2603027;54;20046;31
2023/11/13 04:45:50;;;;;;;7.95;5.05;;;4.10;99.90;;;;;;2603293;54;20030;31
2023/11/13 04:48:24;;;;;;;10.25;4.95;;;4.10;99.90;;;;;;2603150;54;20943;31
2023/11/13 04:50:59;;;;;;;9.18;5.88;;;4.10;99.90;;;;;;2603232;54;20033;31
2023/11/13 04:53:33;;;;;;;8.15;5.13;;;4.10;99.90;;;;;;2603096;54;20033;31
2023/11/13 04:56:08;;;;;;;7.60;4.43;;;4.10;99.90;;;;;;2603048;54;20907;31
2023/11/13 04:58:46;;;;;;;6.55;4.15;;;4.10;99.90;;;;;;2621548;46;20032;31
2023/11/13 05:01:21;;;;;;;7.45;3.90;;;4.20;99.90;;;;;;2602957;54;20037;31
2023/11/13 05:03:54;;;;;;;;;;;4.20;99.90;;;;;;2603441;54;20047;31
2023/11/13 05:06:27;;;;;;;6.85;4.10;;;4.20;99.90;;;;;;2701824;39;20922;31
2023/11/13 05:09:03;;;;;;;5.30;3.97;;;4.30;99.90;;;;;;2603311;54;20085;31
2023/11/13 05:11:40;;;;;;;6.80;3.42;;;4.30;99.90;;;;;;2603006;54;20887;31
2023/11/13 05:14:16;;;;;;;7.10;3.50;;;4.40;99.90;;;;;;2603177;54;20051;31
2023/11/13 05:16:51;;;;;;;5.53;3.45;;;4.40;99.90;;;;;;2603260;54;20866;31
2023/11/13 05:19:26;;;;;;;7.20;3.75;;;4.40;99.90;;;;;;2603484;54;20038;31
2023/11/13 05:22:00;;;;;;;7.07;4.00;;;4.50;99.90;;;;;;2603223;54;20072;31
2023/11/13 05:24:34;;;;;;;5.30;3.13;;;4.50;99.90;;;;;;2603040;54;20091;31
2023/11/13 05:27:08;;;;;;;6.13;3.50;;;4.50;99.90;;;;;;2602995;54;20881;31
2023/11/13 05:29:43;;;;;;;7.45;3.85;;;4.60;99.90;;;;;;2603034;54;22365;31
2023/11/13 05:32:17;;;;;;;5.20;3.20;;;4.60;99.90;;;;;;2603181;54;20065;31
2023/11/13 05:34:49;;;;;;;6.60;3.65;;;4.60;99.90;;;;;;2602983;54;20057;31
2023/11/13 05:37:24;;;;;;;9.40;3.90;;;4.60;99.90;;;;;;2602979;54;21377;31
2023/11/13 05:39:59;;;;;;;8.77;3.63;;;4.60;99.90;;;;;;2621790;47;20053;31
2023/11/13 05:42:33;;;;;;;5.55;3.60;;;4.70;99.90;;;;;;2603155;54;20026;31
2023/11/13 05:45:11;;;;;;;6.13;3.00;;;4.70;99.90;;;;;;2602953;54;20137;31
2023/11/13 05:47:46;;;;;;;6.57;3.53;;;4.70;99.90;;;;;;2602943;54;20113;31
2023/11/13 05:50:21;;;;;;;7.93;4.15;;;4.70;99.90;;;;;;2603069;54;20134;31
2023/11/13 05:52:56;;;;;;;6.93;4.77;;;4.70;99.90;;;;;;2603026;54;20855;31
2023/11/13 05:55:32;;;;;;;7.65;4.80;;;4.60;99.90;;;;;;2603858;54;20027;31
2023/11/13 05:58:07;;;;;;;;;;;4.70;99.90;;;;;;2604110;54;20058;31
2023/11/13 06:00:44;;;;;;;6.50;3.70;;;4.70;99.90;;;;;;2765291;31;20006;31
2023/11/13 06:03:18;;;;;;;7.93;4.15;;;4.70;99.90;;;;;;2603683;54;20977;31
2023/11/13 06:05:53;;;;;;;5.60;3.30;;;4.70;99.90;;;;;;2622135;46;20030;31
2023/11/13 06:08:27;;;;;;;7.00;3.17;;;4.70;99.90;;;;;;2603819;54;20895;31
2023/11/13 06:11:01;;;;;;;4.40;2.33;;;4.80;99.90;;;;;;2603499;54;20918;31
2023/11/13 06:13:35;;;;;;;5.05;2.50;;;4.80;99.90;;;;;;2603657;54;20844;31
2023/11/13 06:16:13;;;;;;;4.35;2.30;;;4.80;99.90;;;;;;2603656;54;20819;31
2023/11/13 06:18:50;;;;;;;7.33;2.87;;;4.80;99.90;;;;;;2603768;54;20881;31
2023/11/13 06:21:25;;;;;;;4.40;2.50;;;4.90;99.90;;;;;;2603507;54;20054;31
2023/11/13 06:24:00;;;;;;;3.57;2.30;;;5.00;99.90;;;;;;2622161;46;20053;31
2023/11/13 06:26:36;;;;;;;6.28;2.10;;;5.00;99.90;;;;;;2603637;54;20032;31
2023/11/13 06:29:10;;;;;;;;;;;5.00;99.90;;;;;;2603831;54;20808;31
2023/11/13 06:31:48;;;;;;;5.40;2.70;;;5.10;99.90;;;;;;2603552;54;19941;31
2023/11/13 06:34:23;;;;;;;13.15;7.60;;;5.10;99.90;;;;;;2603698;54;20030;31
2023/11/13 06:36:58;;;;;;;14.23;7.28;;;5.00;99.90;;;;;;2603975;54;20022;31
2023/11/13 06:39:32;;;;;;;12.73;6.18;;;5.00;99.90;;;;;;2603554;54;20569;31
2023/11/13 06:42:09;;;;;;;13.97;4.93;;;4.90;99.90;;;;;;2603460;54;20037;31
2023/11/13 06:44:43;;;;;;;13.32;6.03;;;5.00;99.90;;;;;;2603596;54;20940;31
2023/11/13 06:47:19;;;;;;;12.57;6.40;;;5.00;99.90;;;;;;2603670;54;20933;31
2023/11/13 06:49:56;;;;;;;13.00;7.20;;;5.00;99.90;;;;;;2603593;54;20113;31
2023/11/13 06:52:31;;;;;;;16.27;7.30;;;5.00;99.90;;;;;;2603408;54;20036;31
2023/11/13 06:55:07;;;;;;;14.52;6.93;;;4.90;99.90;;;;;;2603432;54;20053;31
2023/11/13 06:57:43;;;;;;;10.07;5.75;;;5.00;99.90;;;;;;2603574;54;20097;31
2023/11/13 07:00:19;;;;;;;12.00;6.68;;;5.00;99.90;;;;;;2622020;46;20034;31
2023/11/13 07:02:57;;;;;;;10.82;6.15;;;5.00;99.90;;;;;;2622007;46;20033;31
2023/11/13 07:05:32;;;;;;;16.38;7.50;;;5.00;99.90;;;;;;2603513;54;20134;31
2023/11/13 07:08:09;;;;;;;15.77;7.53;;;5.10;99.90;;;;;;2603618;54;20038;31
2023/11/13 07:10:44;;;;;;;16.80;7.30;;;5.10;99.90;;;;;;2603510;54;20030;31
2023/11/13 07:13:18;;;;;;;13.25;7.57;;;5.10;99.90;;;;;;2603425;54;20900;31
2023/11/13 07:15:53;;;;;;;16.92;7.40;;;5.10;99.90;;;;;;2603371;54;20914;31
2023/11/13 07:18:32;;;;;;;13.90;5.97;;;5.10;99.90;;;;;;2603564;54;20043;31
2023/11/13 07:21:07;;;;;;;11.35;6.00;;;5.10;99.90;;;;;;2603486;54;20819;31
2023/11/13 07:23:41;;;;;;;11.45;6.20;;;5.20;99.90;;;;;;2622214;46;20806;31
2023/11/13 07:26:15;;;;;;;11.98;6.93;;;5.30;99.90;;;;;;2603303;54;20951;31
2023/11/13 07:28:50;;;;;;;13.40;8.00;;;5.30;99.90;;;;;;2603499;54;20081;31
2023/11/13 07:31:24;;;;;;;14.57;9.20;;;5.40;99.90;;;;;;2603105;54;20550;31
2023/11/13 07:36:52;;;;;;;12.05;7.15;;;5.50;99.90;;;;;;2598881;54;20049;31
2023/11/13 07:39:31;;;;;;;12.65;7.13;;;5.50;99.90;;;;;;2616895;46;20137;31
2023/11/13 08:49:00;;;;;;;6.85;2.67;;;6.80;87.40;;;;;;2598702;54;20066;31
2023/11/13 08:54:24;;;;;;;5.20;2.20;;;7.00;83.10;;;;;;2598472;54;20038;31
2023/11/13 08:59:57;;;;;;;3.80;2.03;;;7.00;75.00;;;;;;2598770;54;21421;31
2023/11/13 09:02:41;;;;;;;4.00;1.58;;;7.10;79.90;;;;;;2598544;54;20046;31
2023/11/13 09:05:25;;;;;;;5.87;1.60;;;7.10;74.70;;;;;;2599689;39;21279;31
2023/11/13 11:46:13;;;;;;;2.50;1.00;;;10.50;1.00;;;;;;2598356;54;20402;31
2023/11/13 12:07:20;;;;;;;1.65;0.30;;;10.30;1.00;;;;;;2598018;54;20087;31
2023/11/13 12:19:23;;;;;;;1.00;0.30;;;10.30;1.00;;;;;;2599485;39;22028;31
2023/11/13 12:22:03;;;;;;;1.00;0.35;;;10.20;1.00;;;;;;2598349;54;20829;31
2023/11/13 13:16:31;;;;;;;2.80;1.15;;;9.60;4.90;;;;;;2605925;54;21286;31
2023/11/13 13:19:12;;;;;;;1.23;0.70;;;9.60;6.90;;;;;;2598395;54;20047;31
2023/11/13 13:46:54;;;;;;;5.25;1.85;;;9.30;27.50;;;;;;2597660;54;20039;31
2023/11/13 14:20:34;;;;;;;3.15;1.63;;;9.00;46.30;;;;;;2608306;54;21027;31
2023/11/13 14:23:06;;;;;;;6.00;2.00;;;8.90;46.10;;;;;;2598867;54;20141;31
2023/11/13 15:08:27;;;;;;;10.95;5.65;;;8.00;50.20;;;;;;2599177;54;20042;31
2023/11/13 15:11:07;;;;;;;9.30;4.28;;;8.00;51.50;;;;;;2598634;54;20042;31
2023/11/13 15:13:39;;;;;;;7.93;3.40;;;7.90;52.30;;;;;;2598906;54;20049;31
2023/11/13 15:22:23;;;;;;;9.50;4.50;;;7.80;55.20;;;;;;2609360;54;20031;31
2023/11/13 15:24:57;;;;;;;18.10;6.90;;;7.80;56.80;;;;;;2617791;46;20049;31
2023/11/13 15:27:38;;;;;;;20.40;7.50;;;7.80;57.80;;;;;;2598759;54;20049;31
2023/11/13 15:30:17;;;;;;;24.45;12.15;;;7.70;59.10;;;;;;2598637;54;20058;31
2023/11/13 15:35:55;;;;;;;5.53;3.10;;;7.60;61.50;;;;;;2599236;54;20956;31
2023/11/13 15:38:30;;;;;;;6.20;2.87;;;7.60;62.00;;;;;;2601101;54;21108;31
2023/11/13 15:41:05;;;;;;;6.35;2.72;;;7.50;60.50;;;;;;2602903;54;20135;31
2023/11/13 15:43:43;;;;;;;5.20;2.50;;;7.50;60.60;;;;;;2621633;46;20897;31
2023/11/13 15:46:18;;;;;;;7.57;3.60;;;7.50;60.50;;;;;;2621798;46;20889;31
2023/11/13 15:48:56;;;;;;;7.60;2.75;;;7.50;61.30;;;;;;2602766;54;20026;31
2023/11/13 15:51:31;;;;;;;5.70;3.10;;;7.50;60.60;;;;;;2621429;46;20802;31
2023/11/13 15:54:09;;;;;;;5.90;2.80;;;7.50;61.20;;;;;;2621332;46;20081;31
2023/11/13 15:56:43;;;;;;;6.85;2.28;;;7.40;60.50;;;;;;2602834;54;21096;31
2023/11/13 15:59:23;;;;;;;5.38;2.20;;;7.40;58.00;;;;;;2602821;54;20030;31
2023/11/13 16:01:58;;;;;;;4.18;1.73;;;7.40;56.80;;;;;;2621149;46;20842;31
2023/11/13 16:04:40;;;;;;;5.22;1.70;;;7.40;55.80;;;;;;2621277;46;20038;31
2023/11/13 16:19:26;;;;;;;5.28;2.45;;;7.30;55.50;;;;;;2621274;46;20038;31
2023/11/13 16:36:54;;;;;;;8.85;3.55;;;7.30;56.90;;;;;;2602867;54;20034;31
2023/11/13 16:39:28;;;;;;;10.32;3.95;;;7.20;55.30;;;;;;2621095;47;20026;31
2023/11/13 16:42:01;;;;;;;10.43;4.45;;;7.20;53.90;;;;;;2621031;46;21833;31
2023/11/13 16:44:34;;;;;;;10.60;4.75;;;7.20;55.40;;;;;;2621028;46;21116;31
2023/11/13 16:47:10;;;;;;;10.30;5.00;;;7.10;56.40;;;;;;2602815;54;20027;31
2023/11/13 16:52:58;;;;;;;9.95;5.22;;;7.10;57.70;;;;;;2610934;54;20453;31
2023/11/13 17:01:42;;;;;;;13.90;5.40;;;7.00;60.10;;;;;;2602503;54;20909;31
2023/11/13 17:04:16;;;;;;;16.88;6.43;;;7.00;63.50;;;;;;2602650;54;20728;31
2023/11/13 17:06:51;;;;;;;13.63;6.00;;;7.00;62.20;;;;;;2602623;54;20092;31
2023/11/13 17:09:29;;;;;;;15.50;5.50;;;6.90;63.20;;;;;;2621158;46;20038;31
2023/11/13 17:12:03;;;;;;;16.23;6.93;;;6.90;63.50;;;;;;2602718;54;20132;31
2023/11/13 17:14:43;;;;;;;18.95;7.80;;;6.90;64.80;;;;;;2602590;54;20802;31
2023/11/13 17:17:18;;;;;;;16.75;6.78;;;6.90;64.50;;;;;;2602444;54;20821;31
2023/11/13 17:19:54;;;;;;;14.68;6.00;;;6.80;64.60;;;;;;2602514;54;20055;31
2023/11/13 17:22:29;;;;;;;14.45;6.20;;;6.80;65.10;;;;;;2602428;54;20469;31
2023/11/13 17:25:09;;;;;;;16.73;6.18;;;6.80;66.00;;;;;;2602516;54;21229;31
2023/11/13 17:27:46;;;;;;;14.50;6.55;;;6.90;66.10;;;;;;2620955;46;20085;31
2023/11/13 17:30:21;;;;;;;16.38;5.85;;;6.90;66.30;;;;;;2602665;54;20113;31
2023/11/13 17:32:55;;;;;;;16.43;5.53;;;6.90;65.60;;;;;;2617201;46;20076;31
2023/11/13 17:35:30;;;;;;;11.05;5.00;;;6.90;66.50;;;;;;2602812;54;21223;31
2023/11/13 17:38:05;;;;;;;14.48;5.10;;;6.90;67.10;;;;;;2602675;54;20053;31
2023/11/13 17:40:47;;;;;;;9.15;5.10;;;6.80;65.90;;;;;;2620991;47;20885;31
2023/11/13 17:43:24;;;;;;;12.52;5.50;;;6.80;66.10;;;;;;2602347;54;20065;31
2023/11/13 17:46:00;;;;;;;17.27;5.65;;;6.80;65.80;;;;;;2601878;54;20040;31
2023/11/13 17:48:37;;;;;;;14.55;4.90;;;6.80;65.70;;;;;;2602661;54;20849;31
2023/11/13 17:51:11;;;;;;;11.57;5.07;;;6.90;65.90;;;;;;2603081;54;20034;31
2023/11/13 17:53:47;;;;;;;11.13;4.90;;;6.80;66.50;;;;;;2603394;54;20036;31
2023/11/13 17:56:24;;;;;;;10.23;4.50;;;6.80;66.10;;;;;;2701542;39;20477;31
2023/11/13 17:58:59;;;;;;;14.23;4.93;;;6.80;66.20;;;;;;2603369;54;20250;31
2023/11/13 18:01:40;;;;;;;11.25;4.70;;;6.80;65.80;;;;;;2603402;54;20770;31
2023/11/13 18:04:15;;;;;;;15.00;5.80;;;6.80;66.30;;;;;;2622178;46;20034;31
2023/11/13 18:06:54;;;;;;;13.60;6.10;;;6.80;65.70;;;;;;2702098;39;21565;31
2023/11/13 18:09:28;;;;;;;12.75;5.25;;;6.80;65.40;;;;;;2603218;54;20778;31
2023/11/13 18:12:09;;;;;;;13.68;4.90;;;6.80;65.10;;;;;;2603126;54;20850;31
2023/11/13 18:14:43;;;;;;;12.73;4.45;;;6.80;65.50;;;;;;2621946;46;20049;31
2023/11/13 18:17:21;;;;;;;12.77;5.07;;;6.90;65.90;;;;;;2603254;54;20039;31
2023/11/13 18:19:58;;;;;;;11.60;5.18;;;6.90;66.30;;;;;;2621618;46;20757;31
2023/11/13 18:22:32;;;;;;;14.90;5.90;;;6.90;66.40;;;;;;2603170;54;20608;31
2023/11/13 18:25:10;;;;;;;16.38;6.22;;;6.90;67.30;;;;;;2603101;54;20049;31
2023/11/13 18:27:47;;;;;;;12.93;5.40;;;6.90;68.00;;;;;;2621936;46;20892;31
2023/11/13 18:30:25;;;;;;;15.17;5.53;;;6.80;68.10;;;;;;2622041;46;20230;31
2023/11/13 18:35:34;;;;;;;9.90;4.68;;;6.80;68.50;;;;;;2603170;54;20026;31
2023/11/13 18:38:09;;;;;;;11.63;5.60;;;6.80;69.90;;;;;;2603198;54;20099;31
2023/11/13 18:40:44;;;;;;;12.68;5.25;;;6.80;70.90;;;;;;2603118;54;20937;31
2023/11/13 18:43:22;;;;;;;12.95;6.00;;;6.90;71.40;;;;;;2603216;54;20027;31
2023/11/13 18:49:02;;;;;;;9.95;5.28;;;6.90;72.80;;;;;;2611394;54;20015;31
2023/11/13 18:51:36;;;;;;;14.10;6.00;;;6.90;74.10;;;;;;2603074;54;21018;31
2023/11/13 18:54:11;;;;;;;14.73;6.32;;;6.90;75.30;;;;;;2603136;54;20026;31
2023/11/13 18:56:47;;;;;;;14.70;6.20;;;6.80;76.70;;;;;;2621720;46;20867;31
2023/11/13 18:59:25;;;;;;;13.27;6.32;;;6.90;77.80;;;;;;2603002;54;20026;31
2023/11/13 19:02:00;;;;;;;11.35;5.57;;;6.80;79.20;;;;;;2603044;54;20034;31
2023/11/13 19:04:36;;;;;;;17.87;6.13;;;6.90;81.20;;;;;;2603202;54;20027;31
2023/11/13 19:07:11;;;;;;;13.10;6.38;;;6.90;83.40;;;;;;2603231;54;20037;31
2023/11/13 19:09:46;;;;;;;14.60;6.73;;;6.90;85.00;;;;;;2603028;54;20085;31
2023/11/13 19:12:21;;;;;;;12.40;6.20;;;6.90;84.70;;;;;;2603228;54;20752;31
2023/11/13 19:14:58;;;;;;;15.38;6.18;;;6.90;86.10;;;;;;2603174;54;21866;31
2023/11/13 19:17:37;;;;;;;37.58;12.77;;;6.90;85.90;;;;;;2602956;54;20917;31
2023/11/13 19:20:13;;;;;;;16.33;6.97;;;7.00;86.20;;;;;;2621615;46;20915;31
2023/11/13 19:22:50;;;;;;;14.80;6.90;;;6.90;85.80;;;;;;2621508;46;20869;31
2023/11/13 19:25:27;;;;;;;13.55;5.88;;;6.90;85.70;;;;;;2603212;54;20042;31
2023/11/13 20:38:21;;;;;;;14.38;7.78;;;6.30;99.90;;;;;;2601941;54;20893;31
2023/11/13 20:40:58;;;;;;;17.80;8.37;;;6.20;99.90;;;;;;2701430;39;20359;31
2023/11/13 20:43:32;;;;;;;14.65;7.63;;;6.20;99.90;;;;;;2602719;54;20845;31
2023/11/13 20:46:10;;;;;;;15.37;7.33;;;6.20;99.90;;;;;;2603026;54;20034;31
2023/11/13 20:48:47;;;;;;;12.77;7.10;;;6.20;99.90;;;;;;2602873;54;21098;31
2023/11/13 21:10:03;;;;;;;15.05;7.15;;;6.20;99.90;;;;;;2602683;54;20847;31
2023/11/13 21:15:40;;;;;;;13.65;7.00;;;6.20;99.90;;;;;;2602029;54;20846;31
2023/11/13 21:18:22;;;;;;;12.83;5.73;;;6.20;99.90;;;;;;2602033;54;21011;31
2023/11/13 21:21:10;;;;;;;15.88;7.57;;;6.20;99.90;;;;;;2601999;54;21169;31
2023/11/13 21:24:11;;;;;;;13.27;5.95;;;6.20;99.90;;;;;;2620563;46;20034;31
